Aérodrome :
LOGIN :

S'inscrire | Disclaimer

   EN    FR    IT 

 










Légende :    VFR   VFR Marginal   IFR   IFR Intensif   IFR Très Intensif
Visi : 
Plafond : 
>= 8 km
>= 3000ft
5 à 8 km
1000 à 3000 ft
1500m à 5 km
500 à 1000 ft
800 à 1500m
200 à 500 ft
< 800m
< 200 ft
Symboles :   Orages  Brouillard  Fortes neiges  Fortes précipitations  Vent > 20 kt
SIGMETs :   Divers  Orages  Givrage  Turbulence  Onde Orograph.  Cendres Volcan.






- Altitude de l'aérodrome : 302 ft
- Code IATA : CGN


EDDK - Cologne Bonn

DERNIER METAR :
  • 190450Z 23003KT 210V270 CAVOK 03/02 Q1014 NOSIG

METARs EXPIRÉS :
  • 190420Z 22007KT CAVOK 04/03 Q1014 NOSIG
  • 190350Z 25007KT 210V270 9999 FEW006 SCT030 04/03 Q1014 NOSIG
  • 190320Z 25006KT 220V280 9999 FEW006 SCT030 04/03 Q1013 NOSIG
  • 190250Z 26009KT 230V290 9999 FEW007 BKN030 05/04 Q1013 NOSIG
  • 190220Z 26009KT 240V310 9999 FEW007 SCT028 06/04 Q1013 NOSIG

TAF TAF EDDK
Valide du 19 à 00h jusqu'au 20 à 06h UTC


182300Z 1900/2006 24007KT 9999 SCT007 BKN025
TEMPO 1900/1903 4000 -RADZ BKN007
BECMG 1913/1916 VRB03KT
TEMPO 2002/2006 BKN013



MET'MAP, la Météo Aéronautique d'un coup d'oeil ! - Copyright ORBIFLY Décembre 2007 - Disclaimer

ORBIFLY MET'MAP TEAM :

Programmation & Développement : Alexandra Zaïnal
Conception & Développement : Baudouin d'Aumeries
Co-Programmation & Développement : Marc-Olivier Méhu
Soutien technique & logistique : Manuel Goepfert

Contact : metmap@orbifly.com




SOURCES & CREDITS :

   NOAA